CheckWX is a tool to help pilots better visualize weather data.  It is not intended as a substitute for an official pre-flight weather briefing.

06:57:44 UTC

KTWF METAR
Joslin Field - Magic Valley Regional Airport
Twin Falls, Idaho, USA
Current

1 hour ago

KTWF 220553Z AUTO 17004KT 10SM OVC047 09/07 A3010 RMK AO2 SLP170 60007 T00940072 10133 20094 51016
Observed
Apr-22 @ 05:53 UTC
Wind
  • 170° at 4 KTS
Visibility
10 SM
Flight Rules
VFR
Cloud Levels
  • Overcast at 4,700' AGL
Temperature
C / 48°F
Dewpoint
C / 45°F
Humidity
87%
Altimeter
30.1" Hg
Pressure
1019.32 hPa
Previous

2 hours ago

KTWF 220453Z AUTO 11006KT 10SM OVC048 10/07 A3009 RMK AO2 RAE45 SLP168 P0001 T01000072
Observed
Apr-22 @ 04:53 UTC
Wind
  • 110° at 6 KTS
Visibility
10 SM
Flight Rules
VFR
Cloud Levels
  • Overcast at 4,800' AGL
Temperature
10°C / 50°F
Dewpoint
C / 45°F
Humidity
82%
Altimeter
30.09" Hg
Pressure
1018.92 hPa
Current Rain
0.01"
Previous

3 hours ago

KTWF 220353Z AUTO 14007KT 10SM -RA FEW036 OVC050 09/08 A3007 RMK AO2 RAB01 SLP162 P0006 T00940078
Observed
Apr-22 @ 03:53 UTC
Wind
  • 140° at 7 KTS
Visibility
10 SM
Flight Rules
VFR
Conditions
Light Rain
Cloud Levels
  • Few at 3,600' AGL
  • Overcast at 5,000' AGL
Temperature
C / 48°F
Dewpoint
C / 46°F
Humidity
94%
Altimeter
30.07" Hg
Pressure
1018.32 hPa
Current Rain
0.06"